No particular awareness of the weather is required.    There are no Weather-warnings


Meteo18 Weather Cam more information Meteo18 Weather Cam


Thunder radar more information blitzortung!


Rain radar more information rain snow radar


Visit our other weather sites:

Template documentation
and downloads

And another site



Weather Underground History page Text

Daily Summary for November 20, 2017 Units:  English    Metric   Both
« Previous Day
Next Day »
Daily Weekly Monthly Yearly Custom
  High: Low: Average:
Temperature: 47.8 °F 36 °F 42.6 °F
Dew Point: 45 °F 34.9 °F 41.2 °F
Humidity: 100 % 90 % 95 %
Wind Speed: 12 mph 0 mph 2.8 mph
Wind Gust: 12 mph - -
Wind:- - SSW
Pressure: 30.3 in 30.2 in -
Precipitation: 0 in    
Historical Graphs
 
 
Tabular Data for November 20, 2017
Time Temperature Dew Point Pressure Wind Wind Speed Wind Gust Humidity Rainfall Rate (Hourly)
00:02 36 °F 34.9 °F 30.3 in Calm     96 % 0 in
00:07 36 °F 34.9 °F 30.3 in Calm     96 % 0 in
00:12 36 °F 35.2 °F 30.3 in Calm     97 % 0 in
00:17 36 °F 35.2 °F 30.3 in Calm     97 % 0 in
00:22 36 °F 35.2 °F 30.3 in Calm     97 % 0 in
00:42 36.1 °F 35.4 °F 30.3 in Calm   1 mph 97 % 0 in
00:47 36.3 °F 35.6 °F 30.3 in Calm     97 % 0 in
00:52 36.3 °F 35.6 °F 30.3 in Calm   1 mph 97 % 0 in
01:02 36.3 °F 35.6 °F 30.3 in Calm   1 mph 97 % 0 in
01:07 36.7 °F 36 °F 30.3 in Calm   1 mph 97 % 0 in
01:12 37 °F 36.3 °F 30.3 in Calm   1 mph 97 % 0 in
01:17 37.2 °F 36.5 °F 30.3 in Calm   1 mph 97 % 0 in
01:22 37.6 °F 36.9 °F 30.3 in Calm   1 mph 97 % 0 in
01:32 37.9 °F 37.2 °F 30.3 in Calm   2 mph 97 % 0 in
01:37 37.8 °F 37 °F 30.3 in West 1 mph 2 mph 97 % 0 in
01:42 37.8 °F 37 °F 30.3 in Calm   2 mph 97 % 0 in
01:47 37.8 °F 37 °F 30.3 in Calm   2 mph 97 % 0 in
02:07 38.7 °F 37.9 °F 30.3 in WSW 3 mph 3 mph 97 % 0 in
02:17 39.2 °F 38.7 °F 30.3 in WSW 2 mph 6 mph 98 % 0 in
02:22 39.4 °F 38.8 °F 30.3 in SW 4 mph 7 mph 98 % 0 in
02:32 39.4 °F 38.7 °F 30.3 in SW 2 mph 7 mph 97 % 0 in
02:37 39.6 °F 38.8 °F 30.3 in WSW 2 mph 7 mph 97 % 0 in
02:42 38.1 °F 37.4 °F 30.3 in WSW 1 mph 6 mph 97 % 0 in
02:52 38.5 °F 38.5 °F 30.3 in West 3 mph 6 mph 100 % 0 in
02:57 38.5 °F 38.5 °F 30.3 in West 3 mph 5 mph 100 % 0 in
09:12 39 °F 38.3 °F 30.3 in SSW 2 mph -998.7 mph 97 % 0 in
09:17 39 °F 38.3 °F 30.3 in SW 2 mph 8 mph 97 % 0 in
09:22 39.2 °F 38.5 °F 30.3 in SW 2 mph 8 mph 97 % 0 in
09:27 39.4 °F 38.7 °F 30.3 in SW 4 mph 5 mph 97 % 0 in
09:32 39 °F 37.9 °F 30.3 in West 1 mph 5 mph 96 % 0 in
09:37 39.2 °F 38.5 °F 30.3 in SSW 1 mph 8 mph 97 % 0 in
09:42 39.4 °F 38.7 °F 30.3 in SW 4 mph 8 mph 97 % 0 in
09:52 39.4 °F 38.7 °F 30.3 in WSW 4 mph 6 mph 97 % 0 in
09:57 39.4 °F 38.7 °F 30.3 in SSW 1 mph 6 mph 97 % 0 in
10:02 39.4 °F 38.7 °F 30.3 in SW 3 mph 5 mph 97 % 0 in
10:12 39.4 °F 38.7 °F 30.3 in SW 4 mph 5 mph 97 % 0 in
10:17 39.4 °F 38.3 °F 30.3 in SW 1 mph 5 mph 96 % 0 in
10:22 39.4 °F 38.7 °F 30.3 in SW 3 mph 5 mph 97 % 0 in
10:32 39.7 °F 39 °F 30.3 in South 1 mph 5 mph 97 % 0 in
10:37 39.7 °F 39 °F 30.3 in South 1 mph 4 mph 97 % 0 in
10:47 39.9 °F 39.2 °F 30.3 in SSW 5 mph 5 mph 97 % 0 in
10:52 39.7 °F 39 °F 30.3 in SSW 4 mph 5 mph 97 % 0 in
10:57 39.9 °F 39.2 °F 30.3 in South 5 mph 5 mph 97 % 0 in
11:07 39.7 °F 39 °F 30.3 in SSW 4 mph 6 mph 97 % 0 in
11:12 39.9 °F 39.2 °F 30.3 in SSW 3 mph 6 mph 97 % 0 in
11:17 40.1 °F 39.4 °F 30.3 in South 1 mph 6 mph 97 % 0 in
11:37 40.5 °F 39.7 °F 30.3 in SSE 3 mph 7 mph 97 % 0 in
11:42 40.5 °F 39.7 °F 30.3 in SE 1 mph 7 mph 97 % 0 in
11:52 40.6 °F 39.9 °F 30.3 in SSW 2 mph 6 mph 97 % 0 in
11:57 40.8 °F 40.1 °F 30.3 in SSW 2 mph 8 mph 97 % 0 in
12:12 40.8 °F 39.7 °F 30.3 in SSE 4 mph 8 mph 96 % 0 in
12:17 41.2 °F 40.5 °F 30.3 in SSW 3 mph 7 mph 97 % 0 in
12:22 41.4 °F 40.6 °F 30.3 in SSE 2 mph 9 mph 97 % 0 in
12:32 41.5 °F 40.8 °F 30.3 in SSE 1 mph 8 mph 97 % 0 in
12:42 41.7 °F 41 °F 30.3 in SSW 1 mph 8 mph 97 % 0 in
12:52 42.1 °F 41 °F 30.3 in SSW 1 mph 6 mph 96 % 0 in
13:02 42.4 °F 41.4 °F 30.3 in SSW 4 mph 6 mph 96 % 0 in
13:12 43 °F 41.9 °F 30.3 in SW 2 mph 8 mph 96 % 0 in
13:17 43.2 °F 42.1 °F 30.3 in SSW 3 mph 8 mph 96 % 0 in
13:32 43.7 °F 42.6 °F 30.3 in SSW 4 mph 7 mph 96 % 0 in
13:37 43.9 °F 42.6 °F 30.3 in SW 6 mph 7 mph 95 % 0 in
13:42 44.1 °F 42.8 °F 30.3 in SW 6 mph 7 mph 95 % 0 in
13:47 44.1 °F 42.8 °F 30.3 in SSW 2 mph 7 mph 95 % 0 in
13:57 44.8 °F 43.2 °F 30.3 in SSW 3 mph 8 mph 94 % 0 in
14:02 45 °F 43.3 °F 30.3 in SSW 3 mph 8 mph 94 % 0 in
14:12 45.3 °F 43.3 °F 30.3 in SSW 3 mph 9 mph 93 % 0 in
14:17 45.5 °F 43.5 °F 30.3 in SSE 2 mph 9 mph 93 % 0 in
14:32 46 °F 44.1 °F 30.2 in SW 12 mph 12 mph 93 % 0 in
14:42 46.2 °F 44.1 °F 30.2 in SW 5 mph 12 mph 92 % 0 in
14:52 46.6 °F 44.4 °F 30.2 in South 5 mph 10 mph 92 % 0 in
15:02 46.8 °F 44.1 °F 30.2 in South 4 mph 10 mph 90 % 0 in
15:07 47.1 °F 44.6 °F 30.2 in SW 9 mph 10 mph 91 % 0 in
15:12 47.1 °F 44.6 °F 30.2 in SSW 5 mph 10 mph 91 % 0 in
15:17 47.1 °F 44.4 °F 30.2 in SW 6 mph 10 mph 90 % 0 in
15:27 47.5 °F 44.8 °F 30.2 in SW 2 mph 10 mph 90 % 0 in
15:32 47.7 °F 45 °F 30.2 in SW 3 mph 9 mph 90 % 0 in
15:42 47.8 °F 45 °F 30.2 in SSW 7 mph 8 mph 90 % 0 in
15:52 47.8 °F 45 °F 30.2 in South 2 mph 8 mph 90 % 0 in
16:02 47.5 °F 45 °F 30.2 in SSW 1 mph 8 mph 91 % 0 in
16:07 47.5 °F 45 °F 30.2 in SSW 4 mph 8 mph 91 % 0 in
16:12 47.5 °F 45 °F 30.2 in SSW 4 mph 9 mph 91 % 0 in
16:22 47.1 °F 44.6 °F 30.2 in SSW 4 mph 9 mph 91 % 0 in
16:27 47.1 °F 44.6 °F 30.2 in South 6 mph 7 mph 91 % 0 in
16:32 47.1 °F 44.6 °F 30.2 in SW 6 mph 9 mph 91 % 0 in
16:42 46.8 °F 44.6 °F 30.2 in SSW 3 mph 9 mph 92 % 0 in
16:47 46.8 °F 44.6 °F 30.2 in SSW 3 mph 9 mph 92 % 0 in
16:52 46.6 °F 44.4 °F 30.2 in SW 2 mph 7 mph 92 % 0 in
16:57 46.6 °F 44.4 °F 30.2 in South 2 mph 6 mph 92 % 0 in
17:02 46.2 °F 44.1 °F 30.2 in SSW 2 mph 5 mph 92 % 0 in
17:07 46 °F 43.9 °F 30.2 in South 2 mph 5 mph 92 % 0 in
17:17 45.9 °F 43.9 °F 30.2 in SE 1 mph 3 mph 93 % 0 in
17:22 45.7 °F 43.7 °F 30.2 in SSE 3 mph 4 mph 93 % 0 in
17:27 45.5 °F 43.5 °F 30.2 in SSW 3 mph 5 mph 93 % 0 in
17:32 45.3 °F 43.3 °F 30.2 in Calm   5 mph 93 % 0 in
17:37 45.1 °F 43.2 °F 30.2 in SSE 2 mph 5 mph 93 % 0 in
17:47 45 °F 43.3 °F 30.2 in SSE 1 mph 4 mph 94 % 0 in
17:52 44.8 °F 43.2 °F 30.2 in South 1 mph 5 mph 94 % 0 in
17:57 44.6 °F 43 °F 30.2 in Calm   5 mph 94 % 0 in
18:12 44.2 °F 42.6 °F 30.2 in South 2 mph 3 mph 94 % 0 in
18:17 44.1 °F 42.4 °F 30.2 in Calm   3 mph 94 % 0 in
18:32 43.5 °F 42.3 °F 30.2 in SSW 2 mph 3 mph 95 % 0 in
18:37 43.5 °F 42.3 °F 30.2 in SSW 1 mph 3 mph 95 % 0 in
18:42 43.5 °F 42.3 °F 30.2 in SW 2 mph 4 mph 95 % 0 in
18:47 43.5 °F 42.4 °F 30.2 in SSW 3 mph 4 mph 96 % 0 in
18:57 44.1 °F 43 °F 30.2 in SSW 4 mph 6 mph 96 % 0 in
19:02 44.2 °F 43.2 °F 30.2 in SSW 3 mph 6 mph 96 % 0 in
19:17 44.4 °F 43.3 °F 30.2 in SSW 3 mph 6 mph 96 % 0 in
19:22 44.4 °F 43.2 °F 30.2 in SSW 3 mph 7 mph 95 % 0 in
19:27 44.4 °F 43.2 °F 30.2 in SW 3 mph 7 mph 95 % 0 in
19:37 44.6 °F 43.3 °F 30.2 in SSW 3 mph 6 mph 95 % 0 in
19:42 44.6 °F 43.3 °F 30.2 in SW 4 mph 6 mph 95 % 0 in
20:02 44.8 °F 43.5 °F 30.2 in South 3 mph 7 mph 95 % 0 in
20:07 44.8 °F 43.2 °F 30.2 in SW 4 mph 7 mph 94 % 0 in
20:12 44.8 °F 43.2 °F 30.2 in SW 3 mph 7 mph 94 % 0 in
20:27 44.6 °F 43 °F 30.2 in SSW 4 mph 8 mph 94 % 0 in
20:32 44.6 °F 43 °F 30.2 in SSW 3 mph 8 mph 94 % 0 in
20:37 44.4 °F 42.4 °F 30.2 in SW 5 mph 8 mph 93 % 0 in
20:42 44.4 °F 42.8 °F 30.2 in SW 4 mph 8 mph 94 % 0 in
20:52 44.4 °F 42.4 °F 30.2 in SW 5 mph 7 mph 93 % 0 in
20:57 44.4 °F 42.4 °F 30.2 in SW 4 mph 7 mph 93 % 0 in
21:02 44.4 °F 42.4 °F 30.2 in WSW 3 mph 6 mph 93 % 0 in
21:12 44.4 °F 42.4 °F 30.2 in SW 6 mph 8 mph 93 % 0 in
21:17 44.4 °F 42.4 °F 30.2 in WSW 5 mph 8 mph 93 % 0 in
21:27 44.6 °F 42.6 °F 30.2 in SW 5 mph 10 mph 93 % 0 in
21:32 44.6 °F 42.6 °F 30.2 in SW 5 mph 10 mph 93 % 0 in
21:42 44.8 °F 42.8 °F 30.2 in WSW 4 mph 7 mph 93 % 0 in
21:47 44.8 °F 42.8 °F 30.2 in SW 7 mph 7 mph 93 % 0 in
21:52 45 °F 43 °F 30.2 in SW 6 mph 9 mph 93 % 0 in
21:57 45 °F 43 °F 30.2 in WSW 3 mph 9 mph 93 % 0 in
22:02 45 °F 43 °F 30.2 in WSW 6 mph 9 mph 93 % 0 in
22:17 45 °F 42.8 °F 30.2 in WSW 5 mph 10 mph 92 % 0 in
22:22 45 °F 42.8 °F 30.2 in SW 6 mph 10 mph 92 % 0 in
22:32 45 °F 43 °F 30.2 in WSW 4 mph 9 mph 93 % 0 in
22:52 44.6 °F 42.6 °F 30.2 in SSW 2 mph 8 mph 93 % 0 in
23:02 44.2 °F 42.3 °F 30.2 in SW 2 mph 6 mph 93 % 0 in
23:17 43.9 °F 42.3 °F 30.2 in SW 6 mph 6 mph 94 % 0 in
23:22 43.9 °F 42.3 °F 30.2 in SW 3 mph 7 mph 94 % 0 in
23:27 43.7 °F 42.1 °F 30.2 in SW 3 mph 7 mph 94 % 0 in
23:32 43.7 °F 42.1 °F 30.2 in SSW 3 mph 7 mph 94 % 0 in
23:37 43.5 °F 41.9 °F 30.2 in SSW 1 mph 6 mph 94 % 0 in
23:47 43.5 °F 41.9 °F 30.2 in SW 3 mph 5 mph 94 % 0 in
23:52 43.3 °F 41.7 °F 30.2 in SW 3 mph 5 mph 94 % 0 in
23:57 43.3 °F 42.1 °F 30.2 in SSW 1 mph 5 mph 95 % 0 in
Meteo18
Compliments of Weather Underground - 4 mb

Script developed by  Jim McMurry - jmcmurry@mwt.net Adapted for the template by  Wim van der Kuil - Leuven-Template.eu

You find our weather info also at:

European Weather Network

Weather Underground

Equipment we use:

Weather-station
Davis Vue

Weather-program
Meteohub

Weather-server
Raspberry PI 2 B+

Provider
1 and 1

Davis Vue

Meteohub

Raspberry PI 2 B+

1 and 1